Ganzhou Airport


Codes: ZSGZ/KOW
Name: Ganzhou Airport
City: Ganzhou
Country: China
Elevation: 387 ft.
Wikipedia:

Photos at Ganzhou Airport


   Photos courtesy of SpottingLog. You can add your own sightings and photos by signing up for a free trial today.



No photos found.

Weather at Ganzhou Airport


Time (UTC)DescriptionTempratureWindCloud coverageVisibilityPressureHumidity
16-Jun-2024 12:00Moderate Rain27°C11 mph, S99%10000m1003hPa90%
16-Jun-2024 15:00Light Rain26°C7 mph, S100%10000m1004hPa93%
16-Jun-2024 18:00Light Rain24°C4 mph, S100%10000m1004hPa98%
16-Jun-2024 21:00Moderate Rain24°C4 mph, S100%250m1005hPa99%
17-Jun-2024 00:00Moderate Rain24°C2 mph, S100%1597m1006hPa99%
17-Jun-2024 03:00Moderate Rain25°C4 mph, S100%8595m1007hPa97%
17-Jun-2024 06:00Moderate Rain25°C4 mph, S100%10000m1005hPa97%
17-Jun-2024 09:00Light Rain25°C4 mph, S100%10000m1005hPa97%
17-Jun-2024 12:00Moderate Rain24°C2 mph, SE100%10000m1006hPa98%
17-Jun-2024 15:00Light Rain24°C2 mph, S100%10000m1007hPa98%
17-Jun-2024 18:00Light Rain24°C2 mph, SW100%7081m1005hPa99%
17-Jun-2024 21:00Light Rain24°C2 mph, SW100%10000m1005hPa98%
18-Jun-2024 00:00Light Rain24°C4 mph, SW100%6779m1006hPa98%
18-Jun-2024 03:00Light Rain25°C2 mph, S100%10000m1006hPa95%
18-Jun-2024 06:00Overcast Clouds25°C2 mph, S100%10000m1005hPa94%
18-Jun-2024 09:00Overcast Clouds26°C2 mph, SE100%10000m1004hPa91%
18-Jun-2024 12:00Light Rain25°C2 mph, E100%10000m1005hPa94%
18-Jun-2024 15:00Light Rain25°C4 mph, S100%10000m1005hPa94%
18-Jun-2024 18:00Moderate Rain24°C4 mph, S100%10000m1004hPa97%
18-Jun-2024 21:00Light Rain24°C4 mph, S100%10000m1004hPa98%
19-Jun-2024 00:00Light Rain25°C7 mph, S100%10000m1005hPa94%
19-Jun-2024 03:00Overcast Clouds26°C7 mph, S100%10000m1005hPa92%
19-Jun-2024 06:00Light Rain26°C4 mph, SW100%8330m1004hPa91%
19-Jun-2024 09:00Light Rain25°C2 mph, SW100%10000m1003hPa94%
19-Jun-2024 12:00Light Rain24°C4 mph, SE100%10000m1004hPa97%
19-Jun-2024 15:00Light Rain24°C4 mph, S100%5273m1005hPa97%
19-Jun-2024 18:00Light Rain24°C7 mph, S100%6709m1004hPa97%
19-Jun-2024 21:00Moderate Rain24°C4 mph, SE100%10000m1004hPa98%
20-Jun-2024 00:00Light Rain24°C7 mph, S100%10000m1005hPa95%
20-Jun-2024 03:00Light Rain27°C9 mph, S100%10000m1005hPa88%
20-Jun-2024 06:00Light Rain29°C9 mph, S100%10000m1004hPa80%
20-Jun-2024 09:00Moderate Rain26°C7 mph, S100%10000m1003hPa89%
20-Jun-2024 12:00Light Rain26°C4 mph, S100%10000m1004hPa91%
20-Jun-2024 15:00Overcast Clouds25°C7 mph, S100%10000m1005hPa93%
20-Jun-2024 18:00Light Rain25°C7 mph, S100%10000m1004hPa95%
20-Jun-2024 21:00Light Rain24°C4 mph, S100%10000m1004hPa97%
21-Jun-2024 00:00Light Rain25°C4 mph, S100%10000m1005hPa95%
21-Jun-2024 03:00Light Rain30°C11 mph, S99%10000m1005hPa74%
21-Jun-2024 06:00Light Rain27°C4 mph, W99%8224m1003hPa90%
21-Jun-2024 09:00Light Rain26°C0 mph, SE100%10000m1003hPa93%